Overview Statistics Trail Chart Weather Telemetry Raw packets
 

This is the latest recevied weather packets stored in our database for station/object 4S6DRJ-13. If no packets are shown the sender has not sent any weather packets the latest 10 day(s).

<< 358 359 360 361 362 363 364 >>
Time Temp. Humidity Pressure Rain* Wind** Luminosity Snow
1787928196 28.33° C 84% 1009.8 hPa 0 mm 1.79 m/s, 249° 0 W/m² -
1787928134 28.33° C 84% 1010 hPa 0 mm 0.45 m/s, 197° 0 W/m² -
1787928073 28.33° C 84% 1009.9 hPa 0 mm 0.89 m/s, 223° 0 W/m² -
1787928012 28.33° C 84% 1009.9 hPa 0 mm 0.45 m/s, 162° 0 W/m² -
1787927951 28.33° C 84% 1009.8 hPa 0 mm 2.24 m/s, 224° 0 W/m² -
1787927890 28.33° C 84% 1010 hPa 0 mm 0.89 m/s, 261° 0 W/m² -
1787927830 28.33° C 84% 1010 hPa 0 mm 1.79 m/s, 252° 0 W/m² -
1787927768 28.33° C 84% 1010 hPa 0 mm 1.34 m/s, 187° 0 W/m² -
1787927707 28.33° C 84% 1009.8 hPa 0 mm 1.79 m/s, 213° 0 W/m² -
1787927646 28.33° C 84% 1009.7 hPa 0 mm 2.24 m/s, 222° 0 W/m² -
1787927584 28.33° C 84% 1009.7 hPa 0 mm 1.79 m/s, 288° 0 W/m² -
1787927523 28.33° C 84% 1009.7 hPa 0 mm 0.89 m/s, 234° 0 W/m² -
1787927462 28.33° C 84% 1009.7 hPa 0 mm 0.45 m/s, 224° 0 W/m² -
1787927401 28.33° C 84% 1009.7 hPa 0 mm 1.79 m/s, 252° 0 W/m² -
1787927340 28.33° C 84% 1009.7 hPa 0 mm 1.79 m/s, 226° 0 W/m² -
1787927280 28.33° C 84% 1009.6 hPa 0 mm 0.45 m/s, 182° 0 W/m² -
1787927218 28.33° C 84% 1009.8 hPa 0 mm 1.79 m/s, 254° 0 W/m² -
1787927158 28.33° C 84% 1009.8 hPa 0 mm 1.34 m/s, 191° 0 W/m² -
1787927096 28.33° C 84% 1009.7 hPa 0 mm 1.34 m/s, 145° 0 W/m² -
1787927035 28.33° C 84% 1009.6 hPa 0 mm 1.34 m/s, 227° 0 W/m² -
1787926974 28.33° C 84% 1009.6 hPa 0 mm 0.45 m/s, 214° 0 W/m² -
1787926913 28.33° C 84% 1009.6 hPa 0 mm 1.79 m/s, 339° 0 W/m² -
1787926853 28.33° C 84% 1009.7 hPa 0 mm 0.45 m/s, 178° 0 W/m² -
1787926793 28.33° C 84% 1009.5 hPa 0 mm 0.89 m/s, 215° 0 W/m² -
1787926731 28.33° C 84% 1009.4 hPa 0 mm 1.79 m/s, 247° 0 W/m² -

* Rain latest hour (hover to see other rain measurements)
** Current wind speed in m/s (hover to see current wind gust speed)